sensor_id;sensor_type;location;lat;lon;timestamp;P1;durP1;ratioP1;P2;durP2;ratioP2
15681;SDS011;7941;50.966;6.978;2023-03-12T00:01:38;11.13;;;6.00;;
15681;SDS011;7941;50.966;6.978;2023-03-12T00:04:04;8.57;;;5.60;;
15681;SDS011;7941;50.966;6.978;2023-03-12T00:06:30;7.00;;;5.63;;
15681;SDS011;7941;50.966;6.978;2023-03-12T00:08:57;8.50;;;6.13;;
15681;SDS011;7941;50.966;6.978;2023-03-12T00:11:26;9.33;;;5.53;;
15681;SDS011;7941;50.966;6.978;2023-03-12T00:13:53;7.73;;;5.90;;
15681;SDS011;7941;50.966;6.978;2023-03-12T00:16:20;18.50;;;12.87;;
15681;SDS011;7941;50.966;6.978;2023-03-12T00:18:46;14.10;;;9.63;;
15681;SDS011;7941;50.966;6.978;2023-03-12T00:21:13;18.93;;;10.50;;
15681;SDS011;7941;50.966;6.978;2023-03-12T00:23:39;8.10;;;6.20;;
15681;SDS011;7941;50.966;6.978;2023-03-12T00:26:06;10.53;;;7.67;;
15681;SDS011;7941;50.966;6.978;2023-03-12T00:28:33;9.40;;;6.30;;
15681;SDS011;7941;50.966;6.978;2023-03-12T00:30:59;10.77;;;7.00;;
15681;SDS011;7941;50.966;6.978;2023-03-12T00:33:26;6.80;;;5.70;;
15681;SDS011;7941;50.966;6.978;2023-03-12T00:35:53;7.57;;;5.47;;
15681;SDS011;7941;50.966;6.978;2023-03-12T00:38:20;9.73;;;6.03;;
15681;SDS011;7941;50.966;6.978;2023-03-12T00:40:46;8.60;;;5.83;;
15681;SDS011;7941;50.966;6.978;2023-03-12T00:43:12;10.90;;;6.93;;
15681;SDS011;7941;50.966;6.978;2023-03-12T00:45:38;7.07;;;5.50;;
15681;SDS011;7941;50.966;6.978;2023-03-12T00:48:05;8.10;;;5.13;;
15681;SDS011;7941;50.966;6.978;2023-03-12T00:50:31;8.40;;;5.40;;
15681;SDS011;7941;50.966;6.978;2023-03-12T00:52:57;6.30;;;5.30;;
15681;SDS011;7941;50.966;6.978;2023-03-12T00:55:23;7.43;;;5.33;;
15681;SDS011;7941;50.966;6.978;2023-03-12T00:57:49;6.73;;;5.10;;
15681;SDS011;7941;50.966;6.978;2023-03-12T01:00:15;6.80;;;5.50;;
15681;SDS011;7941;50.966;6.978;2023-03-12T01:02:41;7.37;;;4.80;;
15681;SDS011;7941;50.966;6.978;2023-03-12T01:05:09;6.17;;;5.13;;
15681;SDS011;7941;50.966;6.978;2023-03-12T01:07:36;6.17;;;4.93;;
15681;SDS011;7941;50.966;6.978;2023-03-12T01:10:02;5.50;;;4.93;;
15681;SDS011;7941;50.966;6.978;2023-03-12T01:12:29;8.63;;;4.73;;
15681;SDS011;7941;50.966;6.978;2023-03-12T01:14:55;7.83;;;6.43;;
15681;SDS011;7941;50.966;6.978;2023-03-12T01:17:21;9.23;;;5.73;;
15681;SDS011;7941;50.966;6.978;2023-03-12T01:19:47;5.10;;;4.60;;
15681;SDS011;7941;50.966;6.978;2023-03-12T01:22:13;7.50;;;5.50;;
15681;SDS011;7941;50.966;6.978;2023-03-12T01:24:39;6.80;;;4.87;;
15681;SDS011;7941;50.966;6.978;2023-03-12T01:27:06;7.27;;;5.43;;
15681;SDS011;7941;50.966;6.978;2023-03-12T01:29:32;8.03;;;4.90;;
15681;SDS011;7941;50.966;6.978;2023-03-12T01:31:58;5.67;;;4.40;;
15681;SDS011;7941;50.966;6.978;2023-03-12T01:34:24;8.07;;;5.47;;
15681;SDS011;7941;50.966;6.978;2023-03-12T01:36:50;6.33;;;4.50;;
15681;SDS011;7941;50.966;6.978;2023-03-12T01:39:16;6.53;;;5.40;;
15681;SDS011;7941;50.966;6.978;2023-03-12T01:41:42;7.13;;;5.07;;
15681;SDS011;7941;50.966;6.978;2023-03-12T01:44:11;7.77;;;5.63;;
15681;SDS011;7941;50.966;6.978;2023-03-12T01:46:41;5.67;;;5.07;;
15681;SDS011;7941;50.966;6.978;2023-03-12T01:51:56;8.57;;;5.30;;
15681;SDS011;7941;50.966;6.978;2023-03-12T01:54:22;5.90;;;4.80;;
15681;SDS011;7941;50.966;6.978;2023-03-12T01:56:48;8.47;;;5.00;;
15681;SDS011;7941;50.966;6.978;2023-03-12T01:59:16;6.87;;;4.60;;
15681;SDS011;7941;50.966;6.978;2023-03-12T02:01:44;7.17;;;5.73;;
15681;SDS011;7941;50.966;6.978;2023-03-12T02:04:11;8.23;;;5.60;;
15681;SDS011;7941;50.966;6.978;2023-03-12T02:06:43;7.37;;;5.53;;
15681;SDS011;7941;50.966;6.978;2023-03-12T02:09:10;7.20;;;4.90;;
15681;SDS011;7941;50.966;6.978;2023-03-12T02:11:37;6.53;;;4.80;;
15681;SDS011;7941;50.966;6.978;2023-03-12T02:14:03;7.13;;;5.13;;
15681;SDS011;7941;50.966;6.978;2023-03-12T02:16:29;5.90;;;4.13;;
15681;SDS011;7941;50.966;6.978;2023-03-12T02:18:55;5.80;;;4.60;;
15681;SDS011;7941;50.966;6.978;2023-03-12T02:21:23;9.00;;;5.27;;
15681;SDS011;7941;50.966;6.978;2023-03-12T02:23:51;5.10;;;3.97;;
15681;SDS011;7941;50.966;6.978;2023-03-12T02:26:19;6.20;;;4.53;;
15681;SDS011;7941;50.966;6.978;2023-03-12T02:28:46;6.77;;;4.70;;
15681;SDS011;7941;50.966;6.978;2023-03-12T02:31:13;10.07;;;4.80;;
15681;SDS011;7941;50.966;6.978;2023-03-12T02:33:40;7.60;;;4.73;;
15681;SDS011;7941;50.966;6.978;2023-03-12T02:36:07;8.93;;;4.60;;
15681;SDS011;7941;50.966;6.978;2023-03-12T02:41:00;6.50;;;4.37;;
15681;SDS011;7941;50.966;6.978;2023-03-12T02:43:26;4.87;;;4.37;;
15681;SDS011;7941;50.966;6.978;2023-03-12T02:45:53;5.33;;;4.33;;
15681;SDS011;7941;50.966;6.978;2023-03-12T02:48:20;5.90;;;4.93;;
15681;SDS011;7941;50.966;6.978;2023-03-12T02:50:46;7.33;;;4.77;;
15681;SDS011;7941;50.966;6.978;2023-03-12T02:53:12;6.90;;;4.70;;
15681;SDS011;7941;50.966;6.978;2023-03-12T02:55:39;6.87;;;4.40;;
15681;SDS011;7941;50.966;6.978;2023-03-12T02:58:05;10.33;;;4.57;;
15681;SDS011;7941;50.966;6.978;2023-03-12T03:00:31;7.00;;;4.20;;
15681;SDS011;7941;50.966;6.978;2023-03-12T03:03:00;6.37;;;4.20;;
15681;SDS011;7941;50.966;6.978;2023-03-12T03:05:26;6.43;;;4.33;;
15681;SDS011;7941;50.966;6.978;2023-03-12T03:07:52;7.93;;;4.57;;
15681;SDS011;7941;50.966;6.978;2023-03-12T03:10:19;6.03;;;4.47;;
15681;SDS011;7941;50.966;6.978;2023-03-12T03:12:45;7.40;;;4.53;;
15681;SDS011;7941;50.966;6.978;2023-03-12T03:15:11;5.47;;;3.80;;
15681;SDS011;7941;50.966;6.978;2023-03-12T03:17:37;6.97;;;4.40;;
15681;SDS011;7941;50.966;6.978;2023-03-12T03:20:04;5.47;;;4.30;;
15681;SDS011;7941;50.966;6.978;2023-03-12T03:22:35;5.40;;;3.80;;
15681;SDS011;7941;50.966;6.978;2023-03-12T03:25:01;6.00;;;3.90;;
15681;SDS011;7941;50.966;6.978;2023-03-12T03:27:27;5.90;;;3.87;;
15681;SDS011;7941;50.966;6.978;2023-03-12T03:29:53;4.93;;;3.57;;
15681;SDS011;7941;50.966;6.978;2023-03-12T03:32:20;5.47;;;4.30;;
15681;SDS011;7941;50.966;6.978;2023-03-12T03:34:46;5.90;;;3.73;;
15681;SDS011;7941;50.966;6.978;2023-03-12T03:37:12;5.93;;;4.10;;
15681;SDS011;7941;50.966;6.978;2023-03-12T03:39:38;8.83;;;4.40;;
15681;SDS011;7941;50.966;6.978;2023-03-12T03:42:04;7.40;;;3.83;;
15681;SDS011;7941;50.966;6.978;2023-03-12T03:44:30;5.50;;;3.63;;
15681;SDS011;7941;50.966;6.978;2023-03-12T03:46:56;7.10;;;4.00;;
15681;SDS011;7941;50.966;6.978;2023-03-12T03:49:23;6.20;;;3.50;;
15681;SDS011;7941;50.966;6.978;2023-03-12T03:51:49;6.37;;;3.80;;
15681;SDS011;7941;50.966;6.978;2023-03-12T03:54:16;4.57;;;3.63;;
15681;SDS011;7941;50.966;6.978;2023-03-12T03:56:42;4.43;;;3.50;;
15681;SDS011;7941;50.966;6.978;2023-03-12T03:59:08;5.87;;;3.90;;
15681;SDS011;7941;50.966;6.978;2023-03-12T04:01:34;5.00;;;3.80;;
15681;SDS011;7941;50.966;6.978;2023-03-12T04:04:01;4.70;;;3.67;;
15681;SDS011;7941;50.966;6.978;2023-03-12T04:06:27;4.77;;;3.73;;
15681;SDS011;7941;50.966;6.978;2023-03-12T04:08:57;5.37;;;3.20;;
15681;SDS011;7941;50.966;6.978;2023-03-12T04:11:23;6.53;;;3.63;;
15681;SDS011;7941;50.966;6.978;2023-03-12T04:13:49;5.53;;;3.87;;
15681;SDS011;7941;50.966;6.978;2023-03-12T04:16:16;7.50;;;3.27;;
15681;SDS011;7941;50.966;6.978;2023-03-12T04:18:42;4.33;;;3.40;;
15681;SDS011;7941;50.966;6.978;2023-03-12T04:21:09;4.93;;;3.57;;
15681;SDS011;7941;50.966;6.978;2023-03-12T04:23:36;3.53;;;3.17;;
15681;SDS011;7941;50.966;6.978;2023-03-12T04:26:02;5.93;;;3.83;;
15681;SDS011;7941;50.966;6.978;2023-03-12T04:28:28;6.87;;;3.63;;
15681;SDS011;7941;50.966;6.978;2023-03-12T04:30:58;4.50;;;3.53;;
15681;SDS011;7941;50.966;6.978;2023-03-12T04:33:25;6.13;;;4.03;;
15681;SDS011;7941;50.966;6.978;2023-03-12T04:35:52;3.30;;;3.00;;
15681;SDS011;7941;50.966;6.978;2023-03-12T04:38:22;5.40;;;3.60;;
15681;SDS011;7941;50.966;6.978;2023-03-12T04:43:28;6.03;;;3.50;;
15681;SDS011;7941;50.966;6.978;2023-03-12T04:45:54;4.00;;;3.03;;
15681;SDS011;7941;50.966;6.978;2023-03-12T04:48:20;5.07;;;2.93;;
15681;SDS011;7941;50.966;6.978;2023-03-12T04:50:47;5.93;;;3.27;;
15681;SDS011;7941;50.966;6.978;2023-03-12T04:53:13;3.93;;;3.20;;
15681;SDS011;7941;50.966;6.978;2023-03-12T04:55:39;6.17;;;2.80;;
15681;SDS011;7941;50.966;6.978;2023-03-12T04:58:05;6.40;;;3.23;;
15681;SDS011;7941;50.966;6.978;2023-03-12T05:00:31;6.90;;;3.17;;
15681;SDS011;7941;50.966;6.978;2023-03-12T05:02:57;4.20;;;3.30;;
15681;SDS011;7941;50.966;6.978;2023-03-12T05:05:24;16.53;;;4.67;;
15681;SDS011;7941;50.966;6.978;2023-03-12T05:07:50;4.20;;;3.70;;
15681;SDS011;7941;50.966;6.978;2023-03-12T05:10:16;6.20;;;3.83;;
15681;SDS011;7941;50.966;6.978;2023-03-12T05:12:42;7.40;;;3.60;;
15681;SDS011;7941;50.966;6.978;2023-03-12T05:15:08;5.77;;;3.73;;
15681;SDS011;7941;50.966;6.978;2023-03-12T05:17:34;7.53;;;4.03;;
15681;SDS011;7941;50.966;6.978;2023-03-12T05:20:01;7.70;;;3.57;;
15681;SDS011;7941;50.966;6.978;2023-03-12T05:22:29;7.57;;;3.80;;
15681;SDS011;7941;50.966;6.978;2023-03-12T05:24:55;5.43;;;3.67;;
15681;SDS011;7941;50.966;6.978;2023-03-12T05:27:21;4.20;;;3.80;;
15681;SDS011;7941;50.966;6.978;2023-03-12T05:29:50;4.97;;;3.90;;
15681;SDS011;7941;50.966;6.978;2023-03-12T05:32:16;6.97;;;4.40;;
15681;SDS011;7941;50.966;6.978;2023-03-12T05:34:42;8.70;;;4.57;;
15681;SDS011;7941;50.966;6.978;2023-03-12T05:37:08;6.20;;;4.40;;
15681;SDS011;7941;50.966;6.978;2023-03-12T05:39:34;6.53;;;4.07;;
15681;SDS011;7941;50.966;6.978;2023-03-12T05:42:01;7.00;;;4.13;;
15681;SDS011;7941;50.966;6.978;2023-03-12T05:44:27;6.33;;;4.60;;
15681;SDS011;7941;50.966;6.978;2023-03-12T05:46:53;9.07;;;4.00;;
15681;SDS011;7941;50.966;6.978;2023-03-12T05:49:20;8.03;;;4.43;;
15681;SDS011;7941;50.966;6.978;2023-03-12T05:51:46;8.03;;;4.17;;
15681;SDS011;7941;50.966;6.978;2023-03-12T05:54:13;4.30;;;3.90;;
15681;SDS011;7941;50.966;6.978;2023-03-12T05:56:40;10.20;;;4.67;;
15681;SDS011;7941;50.966;6.978;2023-03-12T05:59:06;5.10;;;4.13;;
15681;SDS011;7941;50.966;6.978;2023-03-12T06:01:34;7.33;;;4.33;;
15681;SDS011;7941;50.966;6.978;2023-03-12T06:04:01;5.37;;;4.37;;
15681;SDS011;7941;50.966;6.978;2023-03-12T06:06:29;4.80;;;4.37;;
15681;SDS011;7941;50.966;6.978;2023-03-12T06:08:55;6.20;;;4.40;;
15681;SDS011;7941;50.966;6.978;2023-03-12T06:11:21;7.83;;;4.60;;
15681;SDS011;7941;50.966;6.978;2023-03-12T06:13:47;6.50;;;4.33;;
15681;SDS011;7941;50.966;6.978;2023-03-12T06:16:21;8.77;;;4.80;;
15681;SDS011;7941;50.966;6.978;2023-03-12T06:18:48;7.83;;;4.43;;
15681;SDS011;7941;50.966;6.978;2023-03-12T06:21:18;6.40;;;4.60;;
15681;SDS011;7941;50.966;6.978;2023-03-12T06:23:45;6.27;;;4.23;;
15681;SDS011;7941;50.966;6.978;2023-03-12T06:26:11;7.13;;;4.20;;
15681;SDS011;7941;50.966;6.978;2023-03-12T06:28:38;5.00;;;4.47;;
15681;SDS011;7941;50.966;6.978;2023-03-12T06:31:04;6.50;;;4.10;;
15681;SDS011;7941;50.966;6.978;2023-03-12T06:33:31;6.50;;;4.73;;
15681;SDS011;7941;50.966;6.978;2023-03-12T06:35:58;7.70;;;4.37;;
15681;SDS011;7941;50.966;6.978;2023-03-12T06:38:24;7.20;;;4.73;;
15681;SDS011;7941;50.966;6.978;2023-03-12T06:40:54;7.97;;;4.63;;
15681;SDS011;7941;50.966;6.978;2023-03-12T06:43:21;5.87;;;4.57;;
15681;SDS011;7941;50.966;6.978;2023-03-12T06:45:47;7.07;;;4.80;;
15681;SDS011;7941;50.966;6.978;2023-03-12T06:48:13;7.60;;;4.60;;
15681;SDS011;7941;50.966;6.978;2023-03-12T06:50:39;4.67;;;4.20;;
15681;SDS011;7941;50.966;6.978;2023-03-12T06:53:05;5.70;;;4.10;;
15681;SDS011;7941;50.966;6.978;2023-03-12T06:55:31;7.17;;;4.20;;
15681;SDS011;7941;50.966;6.978;2023-03-12T06:57:57;5.60;;;4.57;;
15681;SDS011;7941;50.966;6.978;2023-03-12T07:00:23;6.67;;;4.53;;
15681;SDS011;7941;50.966;6.978;2023-03-12T07:02:50;10.73;;;4.87;;
15681;SDS011;7941;50.966;6.978;2023-03-12T07:05:16;7.13;;;5.50;;
15681;SDS011;7941;50.966;6.978;2023-03-12T07:07:42;10.50;;;5.07;;
15681;SDS011;7941;50.966;6.978;2023-03-12T07:10:09;4.67;;;3.60;;
15681;SDS011;7941;50.966;6.978;2023-03-12T07:12:36;7.97;;;4.37;;
15681;SDS011;7941;50.966;6.978;2023-03-12T07:15:02;7.57;;;3.90;;
15681;SDS011;7941;50.966;6.978;2023-03-12T07:17:29;4.30;;;3.80;;
15681;SDS011;7941;50.966;6.978;2023-03-12T07:19:55;5.07;;;4.57;;
15681;SDS011;7941;50.966;6.978;2023-03-12T07:22:21;7.53;;;4.30;;
15681;SDS011;7941;50.966;6.978;2023-03-12T07:24:47;7.97;;;4.30;;
15681;SDS011;7941;50.966;6.978;2023-03-12T07:27:13;8.93;;;4.17;;
15681;SDS011;7941;50.966;6.978;2023-03-12T07:29:39;4.33;;;3.60;;
15681;SDS011;7941;50.966;6.978;2023-03-12T07:32:05;6.90;;;4.53;;
15681;SDS011;7941;50.966;6.978;2023-03-12T07:34:31;4.17;;;3.77;;
15681;SDS011;7941;50.966;6.978;2023-03-12T07:36:57;8.60;;;4.17;;
15681;SDS011;7941;50.966;6.978;2023-03-12T07:39:24;10.67;;;4.83;;
15681;SDS011;7941;50.966;6.978;2023-03-12T07:41:50;5.87;;;4.13;;
15681;SDS011;7941;50.966;6.978;2023-03-12T07:44:16;4.53;;;3.70;;
15681;SDS011;7941;50.966;6.978;2023-03-12T07:46:42;7.20;;;5.40;;
15681;SDS011;7941;50.966;6.978;2023-03-12T07:49:08;9.80;;;4.20;;
15681;SDS011;7941;50.966;6.978;2023-03-12T07:51:35;5.90;;;4.17;;
15681;SDS011;7941;50.966;6.978;2023-03-12T07:54:01;5.60;;;4.23;;
15681;SDS011;7941;50.966;6.978;2023-03-12T07:56:27;10.20;;;4.50;;
15681;SDS011;7941;50.966;6.978;2023-03-12T07:58:53;4.60;;;3.80;;
15681;SDS011;7941;50.966;6.978;2023-03-12T08:01:20;8.40;;;5.30;;
15681;SDS011;7941;50.966;6.978;2023-03-12T08:03:46;5.67;;;4.63;;
15681;SDS011;7941;50.966;6.978;2023-03-12T08:06:12;8.27;;;4.10;;
15681;SDS011;7941;50.966;6.978;2023-03-12T08:08:38;20.03;;;12.37;;
15681;SDS011;7941;50.966;6.978;2023-03-12T08:11:06;6.33;;;4.10;;
15681;SDS011;7941;50.966;6.978;2023-03-12T08:13:33;5.23;;;4.70;;
15681;SDS011;7941;50.966;6.978;2023-03-12T08:15:59;7.17;;;4.37;;
15681;SDS011;7941;50.966;6.978;2023-03-12T08:18:25;5.20;;;3.60;;
15681;SDS011;7941;50.966;6.978;2023-03-12T08:20:52;5.97;;;4.53;;
15681;SDS011;7941;50.966;6.978;2023-03-12T08:23:19;5.83;;;4.20;;
15681;SDS011;7941;50.966;6.978;2023-03-12T08:25:45;6.40;;;4.13;;
15681;SDS011;7941;50.966;6.978;2023-03-12T08:28:12;10.80;;;4.27;;
15681;SDS011;7941;50.966;6.978;2023-03-12T08:30:38;5.60;;;4.03;;
15681;SDS011;7941;50.966;6.978;2023-03-12T08:33:04;8.63;;;4.27;;
15681;SDS011;7941;50.966;6.978;2023-03-12T08:35:33;5.57;;;3.57;;
15681;SDS011;7941;50.966;6.978;2023-03-12T08:37:59;5.70;;;4.30;;
15681;SDS011;7941;50.966;6.978;2023-03-12T08:40:26;5.40;;;4.90;;
15681;SDS011;7941;50.966;6.978;2023-03-12T08:42:52;9.93;;;5.13;;
15681;SDS011;7941;50.966;6.978;2023-03-12T08:45:18;7.47;;;4.87;;
15681;SDS011;7941;50.966;6.978;2023-03-12T08:47:44;7.37;;;4.80;;
15681;SDS011;7941;50.966;6.978;2023-03-12T08:50:11;9.57;;;4.87;;
15681;SDS011;7941;50.966;6.978;2023-03-12T08:52:38;5.20;;;4.70;;
15681;SDS011;7941;50.966;6.978;2023-03-12T08:55:04;6.83;;;5.97;;
15681;SDS011;7941;50.966;6.978;2023-03-12T08:57:30;15.53;;;5.77;;
15681;SDS011;7941;50.966;6.978;2023-03-12T08:59:57;9.37;;;5.57;;
15681;SDS011;7941;50.966;6.978;2023-03-12T09:02:23;7.60;;;5.40;;
15681;SDS011;7941;50.966;6.978;2023-03-12T09:04:49;5.30;;;4.80;;
15681;SDS011;7941;50.966;6.978;2023-03-12T09:07:16;8.27;;;5.47;;
15681;SDS011;7941;50.966;6.978;2023-03-12T09:09:46;9.93;;;5.97;;
15681;SDS011;7941;50.966;6.978;2023-03-12T09:12:12;6.47;;;5.87;;
15681;SDS011;7941;50.966;6.978;2023-03-12T09:14:38;7.37;;;6.53;;
15681;SDS011;7941;50.966;6.978;2023-03-12T09:17:04;7.03;;;5.73;;
15681;SDS011;7941;50.966;6.978;2023-03-12T09:19:31;9.90;;;7.27;;
15681;SDS011;7941;50.966;6.978;2023-03-12T09:21:57;10.00;;;7.30;;
15681;SDS011;7941;50.966;6.978;2023-03-12T09:24:23;9.30;;;7.03;;
15681;SDS011;7941;50.966;6.978;2023-03-12T09:26:50;8.77;;;6.87;;
15681;SDS011;7941;50.966;6.978;2023-03-12T09:29:16;9.37;;;7.07;;
15681;SDS011;7941;50.966;6.978;2023-03-12T09:31:42;12.17;;;7.00;;
15681;SDS011;7941;50.966;6.978;2023-03-12T09:34:08;9.90;;;7.83;;
15681;SDS011;7941;50.966;6.978;2023-03-12T09:36:34;7.57;;;6.53;;
15681;SDS011;7941;50.966;6.978;2023-03-12T09:39:01;11.10;;;7.27;;
15681;SDS011;7941;50.966;6.978;2023-03-12T09:41:28;10.67;;;7.77;;
15681;SDS011;7941;50.966;6.978;2023-03-12T09:46:26;22.43;;;17.40;;
15681;SDS011;7941;50.966;6.978;2023-03-12T09:48:54;10.13;;;7.90;;
15681;SDS011;7941;50.966;6.978;2023-03-12T09:51:27;10.33;;;9.33;;
15681;SDS011;7941;50.966;6.978;2023-03-12T09:53:57;9.33;;;8.30;;
15681;SDS011;7941;50.966;6.978;2023-03-12T09:56:25;8.87;;;8.07;;
15681;SDS011;7941;50.966;6.978;2023-03-12T09:58:52;10.50;;;8.73;;
15681;SDS011;7941;50.966;6.978;2023-03-12T10:01:28;9.47;;;8.50;;
15681;SDS011;7941;50.966;6.978;2023-03-12T10:24:27;10.20;;;9.20;;
15681;SDS011;7941;50.966;6.978;2023-03-12T10:26:56;11.20;;;9.13;;
15681;SDS011;7941;50.966;6.978;2023-03-12T10:29:25;11.00;;;9.93;;
15681;SDS011;7941;50.966;6.978;2023-03-12T10:31:59;10.43;;;9.33;;
15681;SDS011;7941;50.966;6.978;2023-03-12T10:36:57;10.50;;;9.33;;
15681;SDS011;7941;50.966;6.978;2023-03-12T10:39:24;11.83;;;10.70;;
15681;SDS011;7941;50.966;6.978;2023-03-12T10:41:51;11.43;;;10.33;;
15681;SDS011;7941;50.966;6.978;2023-03-12T10:44:19;11.53;;;10.47;;
15681;SDS011;7941;50.966;6.978;2023-03-12T10:46:57;13.03;;;10.87;;
15681;SDS011;7941;50.966;6.978;2023-03-12T10:49:25;12.97;;;10.80;;
15681;SDS011;7941;50.966;6.978;2023-03-12T10:51:59;15.57;;;12.23;;
15681;SDS011;7941;50.966;6.978;2023-03-12T10:54:33;14.90;;;12.97;;
15681;SDS011;7941;50.966;6.978;2023-03-12T10:57:00;14.07;;;12.20;;
15681;SDS011;7941;50.966;6.978;2023-03-12T10:59:28;12.93;;;11.60;;
15681;SDS011;7941;50.966;6.978;2023-03-12T11:01:55;13.33;;;12.03;;
15681;SDS011;7941;50.966;6.978;2023-03-12T11:04:25;14.70;;;13.30;;
15681;SDS011;7941;50.966;6.978;2023-03-12T11:07:52;13.07;;;11.83;;
15681;SDS011;7941;50.966;6.978;2023-03-12T11:10:03;12.83;;;11.60;;
15681;SDS011;7941;50.966;6.978;2023-03-12T11:12:29;12.23;;;11.10;;
15681;SDS011;7941;50.966;6.978;2023-03-12T11:14:56;15.30;;;13.53;;
15681;SDS011;7941;50.966;6.978;2023-03-12T11:17:24;15.67;;;13.93;;
15681;SDS011;7941;50.966;6.978;2023-03-12T11:19:51;16.77;;;15.07;;
15681;SDS011;7941;50.966;6.978;2023-03-12T11:25:20;13.83;;;12.50;;
15681;SDS011;7941;50.966;6.978;2023-03-12T11:27:48;14.63;;;13.03;;
15681;SDS011;7941;50.966;6.978;2023-03-12T11:30:26;18.53;;;15.97;;
15681;SDS011;7941;50.966;6.978;2023-03-12T11:32:54;14.17;;;12.53;;
15681;SDS011;7941;50.966;6.978;2023-03-12T11:43:05;11.70;;;10.50;;
15681;SDS011;7941;50.966;6.978;2023-03-12T11:51:02;15.67;;;11.50;;
15681;SDS011;7941;50.966;6.978;2023-03-12T12:01:09;18.73;;;12.17;;
15681;SDS011;7941;50.966;6.978;2023-03-12T12:03:54;20.43;;;11.67;;
15681;SDS011;7941;50.966;6.978;2023-03-12T12:12:17;16.27;;;9.83;;
15681;SDS011;7941;50.966;6.978;2023-03-12T12:17:18;14.50;;;8.77;;
15681;SDS011;7941;50.966;6.978;2023-03-12T12:19:50;17.83;;;8.53;;
15681;SDS011;7941;50.966;6.978;2023-03-12T12:27:35;21.30;;;8.53;;
15681;SDS011;7941;50.966;6.978;2023-03-12T12:35:36;17.67;;;8.70;;
15681;SDS011;7941;50.966;6.978;2023-03-12T12:40:34;18.00;;;7.20;;
15681;SDS011;7941;50.966;6.978;2023-03-12T12:45:31;16.53;;;7.63;;
15681;SDS011;7941;50.966;6.978;2023-03-12T12:48:05;21.27;;;7.10;;
15681;SDS011;7941;50.966;6.978;2023-03-12T12:50:34;19.63;;;6.40;;
15681;SDS011;7941;50.966;6.978;2023-03-12T12:53:04;17.43;;;7.13;;
15681;SDS011;7941;50.966;6.978;2023-03-12T12:55:33;13.90;;;5.83;;
15681;SDS011;7941;50.966;6.978;2023-03-12T12:58:02;11.53;;;6.03;;
15681;SDS011;7941;50.966;6.978;2023-03-12T13:02:59;13.30;;;4.87;;
15681;SDS011;7941;50.966;6.978;2023-03-12T13:08:01;14.27;;;5.47;;
15681;SDS011;7941;50.966;6.978;2023-03-12T13:13:08;12.53;;;5.17;;
15681;SDS011;7941;50.966;6.978;2023-03-12T13:15:36;16.00;;;5.43;;
15681;SDS011;7941;50.966;6.978;2023-03-12T13:20:32;12.23;;;5.23;;
15681;SDS011;7941;50.966;6.978;2023-03-12T13:25:45;14.33;;;4.80;;
15681;SDS011;7941;50.966;6.978;2023-03-12T13:30:57;16.37;;;4.43;;
15681;SDS011;7941;50.966;6.978;2023-03-12T13:33:40;13.60;;;4.77;;
15681;SDS011;7941;50.966;6.978;2023-03-12T13:39:17;16.37;;;5.30;;
15681;SDS011;7941;50.966;6.978;2023-03-12T13:44:28;15.80;;;4.43;;
15681;SDS011;7941;50.966;6.978;2023-03-12T13:47:00;17.33;;;5.63;;
15681;SDS011;7941;50.966;6.978;2023-03-12T13:49:39;16.83;;;4.13;;
15681;SDS011;7941;50.966;6.978;2023-03-12T13:54:46;16.23;;;4.70;;
15681;SDS011;7941;50.966;6.978;2023-03-12T13:59:48;12.93;;;4.73;;
15681;SDS011;7941;50.966;6.978;2023-03-12T14:02:38;16.53;;;4.83;;
15681;SDS011;7941;50.966;6.978;2023-03-12T14:05:02;12.77;;;5.33;;
15681;SDS011;7941;50.966;6.978;2023-03-12T14:10:05;13.10;;;4.60;;
15681;SDS011;7941;50.966;6.978;2023-03-12T14:15:04;15.60;;;4.50;;
15681;SDS011;7941;50.966;6.978;2023-03-12T14:17:32;17.17;;;5.43;;
15681;SDS011;7941;50.966;6.978;2023-03-12T14:20:00;16.40;;;5.17;;
15681;SDS011;7941;50.966;6.978;2023-03-12T14:22:31;14.73;;;4.80;;
15681;SDS011;7941;50.966;6.978;2023-03-12T14:24:58;15.43;;;4.83;;
15681;SDS011;7941;50.966;6.978;2023-03-12T14:27:28;12.93;;;4.67;;
15681;SDS011;7941;50.966;6.978;2023-03-12T14:30:12;18.17;;;5.10;;
15681;SDS011;7941;50.966;6.978;2023-03-12T14:32:41;18.47;;;5.37;;
15681;SDS011;7941;50.966;6.978;2023-03-12T14:40:24;12.73;;;4.50;;
15681;SDS011;7941;50.966;6.978;2023-03-12T14:42:58;11.33;;;4.23;;
15681;SDS011;7941;50.966;6.978;2023-03-12T14:45:24;13.30;;;4.70;;
15681;SDS011;7941;50.966;6.978;2023-03-12T14:47:58;12.97;;;4.07;;
15681;SDS011;7941;50.966;6.978;2023-03-12T14:50:26;14.80;;;5.20;;
15681;SDS011;7941;50.966;6.978;2023-03-12T14:52:53;12.63;;;4.33;;
15681;SDS011;7941;50.966;6.978;2023-03-12T14:55:20;19.93;;;5.43;;
15681;SDS011;7941;50.966;6.978;2023-03-12T14:57:47;13.37;;;5.27;;
15681;SDS011;7941;50.966;6.978;2023-03-12T15:00:20;15.47;;;5.40;;
15681;SDS011;7941;50.966;6.978;2023-03-12T15:02:47;15.37;;;5.17;;
15681;SDS011;7941;50.966;6.978;2023-03-12T15:05:15;16.17;;;5.10;;
15681;SDS011;7941;50.966;6.978;2023-03-12T15:07:42;13.77;;;4.77;;
15681;SDS011;7941;50.966;6.978;2023-03-12T15:10:17;15.93;;;4.80;;
15681;SDS011;7941;50.966;6.978;2023-03-12T15:12:45;12.30;;;4.30;;
15681;SDS011;7941;50.966;6.978;2023-03-12T15:17:53;16.60;;;5.37;;
15681;SDS011;7941;50.966;6.978;2023-03-12T15:20:20;18.03;;;5.27;;
15681;SDS011;7941;50.966;6.978;2023-03-12T15:22:48;11.87;;;5.83;;
15681;SDS011;7941;50.966;6.978;2023-03-12T15:25:21;14.90;;;4.67;;
15681;SDS011;7941;50.966;6.978;2023-03-12T15:27:47;18.63;;;5.93;;
15681;SDS011;7941;50.966;6.978;2023-03-12T15:30:21;16.87;;;5.37;;
15681;SDS011;7941;50.966;6.978;2023-03-12T15:33:04;19.87;;;5.90;;
15681;SDS011;7941;50.966;6.978;2023-03-12T15:35:31;18.57;;;5.60;;
15681;SDS011;7941;50.966;6.978;2023-03-12T15:37:57;16.03;;;5.37;;
15681;SDS011;7941;50.966;6.978;2023-03-12T15:40:25;19.03;;;5.17;;
15681;SDS011;7941;50.966;6.978;2023-03-12T15:42:52;23.30;;;5.77;;
15681;SDS011;7941;50.966;6.978;2023-03-12T15:45:34;18.43;;;5.87;;
15681;SDS011;7941;50.966;6.978;2023-03-12T15:48:01;17.83;;;5.23;;
15681;SDS011;7941;50.966;6.978;2023-03-12T15:50:29;22.03;;;6.57;;
15681;SDS011;7941;50.966;6.978;2023-03-12T15:53:00;16.30;;;5.30;;
15681;SDS011;7941;50.966;6.978;2023-03-12T15:55:27;21.87;;;6.17;;
15681;SDS011;7941;50.966;6.978;2023-03-12T15:57:54;17.83;;;5.77;;
15681;SDS011;7941;50.966;6.978;2023-03-12T16:00:27;19.70;;;5.53;;
15681;SDS011;7941;50.966;6.978;2023-03-12T16:02:55;16.60;;;5.33;;
15681;SDS011;7941;50.966;6.978;2023-03-12T16:05:26;17.17;;;5.50;;
15681;SDS011;7941;50.966;6.978;2023-03-12T16:07:52;19.47;;;6.20;;
15681;SDS011;7941;50.966;6.978;2023-03-12T16:10:19;17.23;;;5.93;;
15681;SDS011;7941;50.966;6.978;2023-03-12T16:12:46;19.23;;;4.87;;
15681;SDS011;7941;50.966;6.978;2023-03-12T16:15:21;21.50;;;5.17;;
15681;SDS011;7941;50.966;6.978;2023-03-12T16:17:51;17.53;;;5.40;;
15681;SDS011;7941;50.966;6.978;2023-03-12T16:20:17;17.63;;;5.10;;
15681;SDS011;7941;50.966;6.978;2023-03-12T16:22:44;19.50;;;5.30;;
15681;SDS011;7941;50.966;6.978;2023-03-12T16:25:10;16.47;;;4.77;;
15681;SDS011;7941;50.966;6.978;2023-03-12T16:27:38;15.27;;;4.97;;
15681;SDS011;7941;50.966;6.978;2023-03-12T16:30:11;18.53;;;5.80;;
15681;SDS011;7941;50.966;6.978;2023-03-12T16:32:39;14.07;;;4.80;;
15681;SDS011;7941;50.966;6.978;2023-03-12T16:35:12;20.50;;;5.70;;
15681;SDS011;7941;50.966;6.978;2023-03-12T16:37:38;20.97;;;5.37;;
15681;SDS011;7941;50.966;6.978;2023-03-12T16:40:05;18.27;;;6.07;;
15681;SDS011;7941;50.966;6.978;2023-03-12T16:42:31;21.40;;;5.50;;
15681;SDS011;7941;50.966;6.978;2023-03-12T16:45:00;22.73;;;5.97;;
15681;SDS011;7941;50.966;6.978;2023-03-12T16:47:26;24.97;;;5.67;;
15681;SDS011;7941;50.966;6.978;2023-03-12T16:49:53;18.60;;;5.60;;
15681;SDS011;7941;50.966;6.978;2023-03-12T16:52:20;19.90;;;6.30;;
15681;SDS011;7941;50.966;6.978;2023-03-12T16:54:47;20.53;;;5.93;;
15681;SDS011;7941;50.966;6.978;2023-03-12T16:57:31;20.93;;;6.40;;
15681;SDS011;7941;50.966;6.978;2023-03-12T16:59:57;21.67;;;6.37;;